Time;durP1;ratioP1;P1;durP2;ratioP2;P2;SDS_P1;SDS_P2;PMS_P1;PMS_P2;Temp;Humidity;BMP_temperature;BMP_pressure;BME280_temperature;BME280_humidity;BME280_pressure;Samples;Min_cycle;Max_cycle;Signal;HPM_P1;HPM_P2
2024/03/06 00:02:17;;;;;;;46.60;26.40;;;;;;;4.83;81.28;100617.18;129692;1264;114840;-69
2024/03/06 00:05:19;;;;;;;41.30;23.30;;;;;;;4.84;81.24;100614.50;129567;1264;220087;-70
2024/03/06 00:08:21;;;;;;;51.00;29.60;;;;;;;4.84;81.40;100615.39;129864;1282;115406;-69
2024/03/06 00:11:23;;;;;;;38.50;23.30;;;;;;;4.83;81.06;100617.18;129935;1264;114740;-70
2024/03/06 00:14:25;;;;;;;50.20;28.50;;;;;;;4.81;81.17;100618.80;129684;1274;115195;-69
2024/03/06 00:17:27;;;;;;;46.80;26.80;;;;;;;4.80;81.42;100621.66;129754;1264;114819;-69
2024/03/06 00:20:29;;;;;;;49.40;31.00;;;;;;;4.81;81.35;100625.20;129455;1267;128090;-70
2024/03/06 00:23:31;;;;;;;30.20;18.90;;;;;;;4.82;81.33;100624.63;129683;1260;114855;-69
2024/03/06 00:26:33;;;;;;;50.20;28.20;;;;;;;4.83;81.27;100625.34;129712;1258;114756;-68
2024/03/06 00:29:37;;;;;;;41.70;23.80;;;;;;;4.82;81.21;100623.93;129786;1265;114733;-69
2024/03/06 00:32:39;;;;;;;47.50;26.40;;;;;;;4.80;81.46;100627.70;129604;1267;114808;-68
2024/03/06 00:35:41;;;;;;;49.10;31.20;;;;;;;4.78;81.43;100628.80;129728;1260;114756;-70
2024/03/06 00:38:43;;;;;;;47.40;25.90;;;;;;;4.78;81.64;100628.08;129757;1264;114816;-71
2024/03/06 00:41:46;;;;;;;40.10;23.30;;;;;;;4.77;81.71;100627.04;129801;1264;129021;-68
2024/03/06 00:44:48;;;;;;;45.50;25.40;;;;;;;4.75;81.45;100627.26;129687;1263;115309;-68
2024/03/06 00:47:50;;;;;;;48.30;27.30;;;;;;;4.72;81.51;100628.38;129665;1264;115491;-68
2024/03/06 00:50:52;;;;;;;43.10;23.40;;;;;;;4.68;81.37;100634.48;129731;1259;114812;-68
2024/03/06 00:53:53;;;;;;;41.20;24.20;;;;;;;4.63;81.62;100630.86;129800;1265;114674;-70
2024/03/06 00:56:57;;;;;;;52.40;28.80;;;;;;;4.60;81.55;100630.57;129825;1264;117180;-68
2024/03/06 00:59:59;;;;;;;49.40;29.10;;;;;;;4.59;81.69;100635.18;129676;1264;114825;-69
2024/03/06 01:03:01;;;;;;;49.80;29.00;;;;;;;4.59;81.77;100638.20;129740;1259;114797;-69
2024/03/06 01:06:03;;;;;;;52.30;28.20;;;;;;;4.59;81.94;100638.38;129696;1282;114757;-69
2024/03/06 01:09:04;;;;;;;50.00;28.20;;;;;;;4.60;81.95;100641.71;129686;1264;115106;-68
2024/03/06 01:12:06;;;;;;;49.40;27.90;;;;;;;4.60;82.03;100643.48;129766;1278;114740;-69
2024/03/06 01:15:08;;;;;;;54.30;29.70;;;;;;;4.59;81.85;100642.60;129692;1264;115108;-68
2024/03/06 01:18:10;;;;;;;56.50;31.90;;;;;;;4.61;82.09;100645.95;129686;1263;114876;-68
2024/03/06 01:21:12;;;;;;;68.10;35.70;;;;;;;4.62;82.03;100644.15;129715;1264;114741;-69
2024/03/06 01:24:14;;;;;;;51.80;29.20;;;;;;;4.62;82.22;100647.16;129451;1259;127591;-69
2024/03/06 01:27:17;;;;;;;53.20;28.50;;;;;;;4.62;82.08;100652.30;129678;1260;115367;-68
2024/03/06 01:30:19;;;;;;;55.90;32.60;;;;;;;4.61;81.89;100655.84;129722;1264;115426;-69
2024/03/06 01:33:21;;;;;;;48.30;30.10;;;;;;;4.60;82.20;100656.58;129792;1275;115110;-69
2024/03/06 01:36:23;;;;;;;44.70;24.40;;;;;;;4.53;82.09;100656.69;129732;1263;114803;-67
2024/03/06 01:39:25;;;;;;;53.20;29.60;;;;;;;4.46;81.86;100658.61;129656;1262;115383;-69
2024/03/06 01:42:28;;;;;;;47.60;26.90;;;;;;;4.40;81.98;100657.66;129761;1260;114774;-68
2024/03/06 01:45:31;;;;;;;51.90;30.50;;;;;;;4.32;81.94;100660.44;129682;1260;128845;-68
2024/03/06 01:48:33;;;;;;;45.30;25.40;;;;;;;4.25;82.17;100662.52;129744;1259;115222;-68
2024/03/06 01:51:35;;;;;;;47.00;26.70;;;;;;;4.16;82.17;100669.02;129691;1258;114817;-69
2024/03/06 01:54:38;;;;;;;46.60;26.10;;;;;;;4.11;82.25;100673.54;129746;1264;114802;-70
2024/03/06 01:57:40;;;;;;;50.70;28.60;;;;;;;4.06;82.63;100669.91;129724;1263;115184;-70
2024/03/06 02:00:42;;;;;;;48.60;28.50;;;;;;;4.00;82.65;100665.94;129676;1266;114741;-68
2024/03/06 02:03:45;;;;;;;54.20;29.30;;;;;;;3.92;82.59;100663.06;129724;1260;114836;-68
2024/03/06 02:06:47;;;;;;;51.30;26.70;;;;;;;3.82;82.64;100666.22;129502;1260;127678;-68
2024/03/06 02:09:49;;;;;;;46.40;26.80;;;;;;;3.73;82.57;100667.07;129705;1263;115186;-69
2024/03/06 02:12:53;;;;;;;48.60;26.80;;;;;;;3.66;82.64;100666.30;129769;1264;114805;-69
2024/03/06 02:15:55;;;;;;;36.60;20.20;;;;;;;3.59;82.62;100658.99;129596;1266;114833;-69
2024/03/06 02:18:57;;;;;;;39.90;21.50;;;;;;;3.48;82.63;100665.14;129576;1260;114867;-72
2024/03/06 02:21:59;;;;;;;44.50;24.90;;;;;;;3.36;82.86;100662.85;129741;1260;114776;-69
2024/03/06 02:25:01;;;;;;;45.30;24.90;;;;;;;3.23;82.98;100665.66;129802;1260;114813;-68
2024/03/06 02:28:04;;;;;;;48.90;28.00;;;;;;;3.11;83.01;100668.11;129843;1259;114742;-69
2024/03/06 02:31:06;;;;;;;53.30;29.80;;;;;;;3.00;83.19;100666.84;129783;1260;114830;-69
2024/03/06 02:34:09;;;;;;;49.60;27.30;;;;;;;2.90;83.08;100671.36;129702;1259;116423;-69
2024/03/06 02:37:11;;;;;;;52.20;27.60;;;;;;;2.81;83.21;100666.55;129810;1258;114831;-68
2024/03/06 02:40:13;;;;;;;55.40;27.70;;;;;;;2.71;83.55;100666.65;129774;1263;114735;-71
2024/03/06 02:43:15;;;;;;;22.40;13.00;;;;;;;2.61;83.35;100669.41;129691;1259;115178;-70
2024/03/06 02:46:17;;;;;;;53.20;29.30;;;;;;;2.50;83.41;100668.83;129718;1259;115165;-68
2024/03/06 02:49:19;;;;;;;52.80;27.60;;;;;;;2.39;83.66;100672.63;129728;1259;115538;-67
2024/03/06 02:52:21;;;;;;;51.50;28.60;;;;;;;2.32;83.69;100679.39;129418;1266;128246;-69
2024/03/06 02:55:24;;;;;;;49.60;29.10;;;;;;;2.24;83.74;100679.99;129667;1259;114921;-68
2024/03/06 02:58:28;;;;;;;49.60;28.20;;;;;;;2.16;84.05;100683.77;129810;1265;114716;-66
2024/03/06 03:01:30;;;;;;;49.30;26.40;;;;;;;2.09;83.88;100685.77;129701;1264;115475;-68
2024/03/06 03:04:32;;;;;;;52.30;26.90;;;;;;;2.02;83.76;100690.58;129771;1260;115031;-68
2024/03/06 03:07:34;;;;;;;47.90;23.30;;;;;;;1.94;84.04;100693.83;129679;1264;114793;-70
2024/03/06 03:10:36;;;;;;;47.50;25.50;;;;;;;1.86;84.03;100700.05;129633;1265;114726;-67
2024/03/06 03:13:37;;;;;;;47.30;26.00;;;;;;;1.76;84.31;100695.35;129714;1266;114735;-68
2024/03/06 03:16:39;;;;;;;45.10;24.60;;;;;;;1.66;84.30;100701.23;129420;1266;114800;-67
2024/03/06 03:19:41;;;;;;;44.70;25.30;;;;;;;1.56;84.26;100701.99;129740;1275;115117;-69
2024/03/06 03:22:43;;;;;;;50.60;27.10;;;;;;;1.49;84.58;100704.85;129727;1282;115113;-70
2024/03/06 03:25:45;;;;;;;53.70;28.30;;;;;;;1.43;84.68;100706.13;129443;1265;114848;-68
2024/03/06 03:28:47;;;;;;;49.40;28.80;;;;;;;1.37;84.66;100705.09;129667;1265;115777;-68
2024/03/06 03:31:49;;;;;;;46.10;25.50;;;;;;;1.30;84.53;100704.08;129874;1263;115083;-70
2024/03/06 03:34:51;;;;;;;51.60;27.40;;;;;;;1.23;84.82;100706.38;129835;1264;128597;-67
2024/03/06 03:37:53;;;;;;;50.00;28.00;;;;;;;1.16;84.68;100712.23;129684;1259;114769;-68
2024/03/06 03:40:55;;;;;;;50.70;26.80;;;;;;;1.12;84.92;100719.64;129723;1265;115564;-71
2024/03/06 03:43:57;;;;;;;47.00;25.90;;;;;;;1.08;85.07;100721.41;129436;1268;115149;-67
2024/03/06 03:46:59;;;;;;;50.70;26.50;;;;;;;1.02;84.91;100721.59;129729;1259;114771;-68
2024/03/06 03:50:01;;;;;;;54.10;28.40;;;;;;;0.97;84.74;100721.45;129738;1262;114773;-70
2024/03/06 03:53:03;;;;;;;53.00;26.10;;;;;;;0.91;84.69;100723.57;129652;1259;115424;-67
2024/03/06 03:56:06;;;;;;;42.90;24.90;;;;;;;0.86;84.57;100726.76;129555;1260;115127;-71
2024/03/06 03:59:08;;;;;;;53.20;27.10;;;;;;;0.80;84.73;100726.42;129675;1259;114675;-68
2024/03/06 04:02:09;;;;;;;51.40;28.20;;;;;;;0.74;84.74;100726.61;129839;1282;114798;-71
2024/03/06 04:05:12;;;;;;;56.50;30.30;;;;;;;0.70;84.76;100730.48;129764;1259;114759;-67
2024/03/06 04:08:14;;;;;;;50.70;25.40;;;;;;;0.65;84.97;100726.27;129745;1264;114818;-70
2024/03/06 04:11:16;;;;;;;57.80;30.30;;;;;;;0.61;84.67;100731.90;129750;1264;115202;-68
2024/03/06 04:14:19;;;;;;;60.60;31.00;;;;;;;0.56;85.02;100732.44;129519;1266;114793;-68
2024/03/06 04:17:21;;;;;;;52.70;26.30;;;;;;;0.52;84.90;100736.13;129714;1282;114719;-70
2024/03/06 04:20:22;;;;;;;53.10;27.50;;;;;;;0.46;84.51;100737.20;129666;1265;114771;-70
2024/03/06 04:23:24;;;;;;;55.60;27.70;;;;;;;0.41;84.65;100738.60;129757;1259;115256;-68
2024/03/06 04:26:27;;;;;;;56.40;29.60;;;;;;;0.35;84.62;100743.36;129743;1274;114748;-68
2024/03/06 04:29:29;;;;;;;60.10;31.90;;;;;;;0.28;84.83;100742.65;129734;1278;114828;-70
2024/03/06 04:32:30;;;;;;;63.50;31.40;;;;;;;0.23;84.74;100744.06;129707;1282;114773;-68
2024/03/06 04:35:32;;;;;;;56.90;32.60;;;;;;;0.17;84.70;100747.04;129659;1275;114744;-69
2024/03/06 04:38:34;;;;;;;56.60;31.10;;;;;;;0.12;84.70;100750.38;129691;1260;114719;-68
2024/03/06 04:41:36;;;;;;;55.50;30.90;;;;;;;0.08;85.16;100756.00;129742;1264;114886;-69
2024/03/06 04:44:38;;;;;;;57.30;28.30;;;;;;;0.06;85.31;100758.98;129757;1282;115504;-68
2024/03/06 04:47:40;;;;;;;55.90;28.40;;;;;;;0.04;85.29;100760.73;129672;1264;114773;-69
2024/03/06 04:50:42;;;;;;;57.40;31.60;;;;;;;0.01;85.12;100767.23;129777;1264;114738;-68
2024/03/06 04:53:43;;;;;;;61.70;31.10;;;;;;;-0.03;85.20;100763.20;129680;1265;114809;-71
2024/03/06 04:56:45;;;;;;;64.80;34.30;;;;;;;-0.06;85.23;100766.15;129679;1263;115160;-67
2024/03/06 04:59:47;;;;;;;57.20;29.90;;;;;;;-0.11;85.19;100768.80;129744;1264;114696;-69
2024/03/06 05:02:49;;;;;;;61.60;30.80;;;;;;;-0.15;85.09;100774.92;129685;1261;128872;-68
2024/03/06 05:05:51;;;;;;;63.40;31.30;;;;;;;-0.20;85.04;100776.50;129664;1265;114901;-70
2024/03/06 05:08:52;;;;;;;59.70;31.20;;;;;;;-0.23;85.19;100780.17;129783;1266;114761;-67
2024/03/06 05:11:54;;;;;;;57.90;32.30;;;;;;;-0.26;85.10;100782.62;129568;1264;114756;-68
2024/03/06 05:14:56;;;;;;;57.50;29.80;;;;;;;-0.30;85.16;100785.41;129721;1259;115230;-70
2024/03/06 05:17:58;;;;;;;55.40;29.20;;;;;;;-0.33;85.52;100788.22;129859;1261;114853;-69
2024/03/06 05:21:00;;;;;;;59.60;30.60;;;;;;;-0.35;85.51;100790.85;129468;1267;114702;-70
2024/03/06 05:24:02;;;;;;;59.00;30.00;;;;;;;-0.34;85.97;100790.50;129691;1278;114747;-69
2024/03/06 05:27:04;;;;;;;58.70;30.20;;;;;;;-0.33;85.96;100793.66;129823;1282;114830;-69
2024/03/06 05:30:08;;;;;;;56.60;30.60;;;;;;;-0.33;86.02;100791.90;129791;1265;114846;-69
2024/03/06 05:33:10;;;;;;;57.50;31.00;;;;;;;-0.32;86.24;100792.95;129736;1265;114761;-68
2024/03/06 05:36:15;;;;;;;56.60;30.30;;;;;;;-0.29;86.10;100794.73;129748;1263;114815;-67
2024/03/06 05:39:17;;;;;;;55.50;30.80;;;;;;;-0.27;86.41;100795.08;129568;1260;114759;-71
2024/03/06 05:42:19;;;;;;;57.80;30.20;;;;;;;-0.24;86.51;100795.09;129647;1261;114803;-70
2024/03/06 05:45:21;;;;;;;61.80;33.70;;;;;;;-0.22;86.37;100800.52;129755;1263;114744;-68
2024/03/06 05:48:24;;;;;;;58.60;32.60;;;;;;;-0.19;86.34;100797.92;129490;1261;114724;-70
2024/03/06 05:51:26;;;;;;;61.50;32.90;;;;;;;-0.12;86.81;100804.06;129729;1273;114770;-70
2024/03/06 05:54:29;;;;;;;54.60;27.90;;;;;;;-0.07;86.80;100802.67;129785;1263;114873;-69
2024/03/06 05:57:31;;;;;;;58.20;30.70;;;;;;;-0.01;86.66;100803.58;129690;1259;114999;-68
2024/03/06 06:00:33;;;;;;;61.60;34.10;;;;;;;0.05;86.83;100810.95;129767;1275;115418;-70
2024/03/06 06:03:35;;;;;;;58.60;30.00;;;;;;;0.10;86.85;100810.62;129519;1265;127802;-70
2024/03/06 06:06:37;;;;;;;56.10;29.70;;;;;;;0.16;86.83;100815.55;129695;1262;114761;-68
2024/03/06 06:09:39;;;;;;;90.10;42.80;;;;;;;0.23;86.91;100815.73;129857;1265;115434;-70
2024/03/06 06:12:41;;;;;;;62.00;31.70;;;;;;;0.30;87.39;100817.85;129796;1259;114856;-69
2024/03/06 06:15:43;;;;;;;63.70;31.10;;;;;;;0.38;87.66;100820.31;129881;1260;114770;-69
2024/03/06 06:18:44;;;;;;;57.80;30.70;;;;;;;0.46;87.68;100822.25;129755;1278;114739;-67
2024/03/06 06:21:47;;;;;;;54.50;28.90;;;;;;;0.54;88.13;100822.95;129462;1282;114805;-68
2024/03/06 06:24:49;;;;;;;50.50;26.80;;;;;;;0.63;87.90;100824.35;129649;1260;114816;-69
2024/03/06 06:27:51;;;;;;;53.00;30.80;;;;;;;0.75;88.05;100826.12;129809;1274;115111;-69
2024/03/06 06:30:53;;;;;;;48.40;25.30;;;;;;;0.88;88.50;100829.09;129868;1260;115306;-67
2024/03/06 06:33:54;;;;;;;49.00;26.10;;;;;;;1.02;88.46;100836.45;129520;1265;115126;-68
2024/03/06 06:36:56;;;;;;;52.90;26.20;;;;;;;1.17;88.61;100836.61;129774;1265;114834;-66
2024/03/06 06:39:59;;;;;;;46.40;23.10;;;;;;;1.32;88.35;100837.63;129699;1265;114802;-70
2024/03/06 06:43:01;;;;;;;52.20;29.30;;;;;;;1.49;88.43;100840.20;129497;1265;114876;-70
2024/03/06 06:46:05;;;;;;;48.50;26.20;;;;;;;1.66;88.49;100844.02;129695;1260;115458;-66
2024/03/06 06:49:07;;;;;;;49.90;27.50;;;;;;;1.85;88.63;100848.68;129692;1258;114719;-68
2024/03/06 06:52:09;;;;;;;57.70;28.30;;;;;;;1.99;88.23;100847.73;129658;1263;115561;-67
2024/03/06 06:55:11;;;;;;;46.60;24.10;;;;;;;2.12;88.01;100845.20;129572;1260;114750;-73
2024/03/06 06:58:13;;;;;;;46.60;25.60;;;;;;;2.25;88.05;100841.77;129522;1267;115010;-69
2024/03/06 07:01:16;;;;;;;47.40;27.40;;;;;;;2.40;88.14;100842.02;129557;1265;114737;-68
2024/03/06 07:04:20;;;;;;;37.30;20.30;;;;;;;2.52;87.96;100846.88;129692;1265;114766;-69
2024/03/06 07:07:22;;;;;;;27.70;15.40;;;;;;;2.63;87.53;100843.60;129665;1259;114767;-68
2024/03/06 07:10:23;;;;;;;47.10;24.90;;;;;;;2.74;87.45;100846.34;129784;1265;115417;-73
2024/03/06 07:13:25;;;;;;;46.20;23.80;;;;;;;2.88;87.38;100847.11;129450;1259;114881;-71
2024/03/06 07:16:27;;;;;;;45.50;26.70;;;;;;;3.07;87.57;100847.46;129715;1264;114704;-69
2024/03/06 07:19:29;;;;;;;45.60;25.00;;;;;;;3.27;87.47;100846.36;129731;1263;114811;-69
2024/03/06 07:22:31;;;;;;;44.70;23.80;;;;;;;3.42;86.81;100855.39;129738;1265;114766;-69
2024/03/06 07:25:33;;;;;;;45.50;24.00;;;;;;;3.57;86.78;100855.75;129677;1265;114734;-71
2024/03/06 07:28:35;;;;;;;50.70;25.50;;;;;;;3.78;86.79;100850.73;129596;1265;114809;-70
2024/03/06 07:31:38;;;;;;;43.50;25.00;;;;;;;3.97;86.64;100851.01;129758;1265;114744;-74
2024/03/06 07:34:39;;;;;;;52.00;28.50;;;;;;;4.20;86.45;100852.13;129655;1265;114768;-70
2024/03/06 07:37:44;;;;;;;49.30;27.60;;;;;;;4.45;86.90;100855.10;129680;1260;114780;-70
2024/03/06 07:40:46;;;;;;;26.20;15.30;;;;;;;4.76;86.60;100848.59;129728;1263;114734;-71
2024/03/06 07:43:48;;;;;;;34.80;20.00;;;;;;;5.02;85.82;100851.17;129676;1264;114822;-69
2024/03/06 07:46:50;;;;;;;43.10;25.50;;;;;;;5.20;84.94;100858.98;129748;1265;114787;-69
2024/03/06 07:49:52;;;;;;;45.10;25.80;;;;;;;5.37;84.63;100856.91;129730;1282;114751;-72
2024/03/06 07:52:55;;;;;;;43.90;25.20;;;;;;;5.57;83.76;100857.93;129709;1265;114726;-71
2024/03/06 07:55:55;;;;;;;46.10;29.80;;;;;;;5.66;82.71;100857.39;129643;1265;114772;-68
2024/03/06 07:58:57;;;;;;;40.50;22.20;;;;;;;5.85;83.38;100853.81;129670;1259;115478;-69
2024/03/06 08:01:57;;;;;;;41.50;24.60;;;;;;;6.12;82.96;100854.17;129758;1265;114788;-72
2024/03/06 08:04:58;;;;;;;38.70;25.30;;;;;;;6.40;83.06;100859.20;129651;1265;114772;-72
2024/03/06 08:07:59;;;;;;;27.70;16.60;;;;;;;6.71;83.32;100863.64;129595;1265;114756;-70
2024/03/06 08:10:59;;;;;;;32.30;20.70;;;;;;;7.08;82.46;100862.00;129571;1265;114852;-70
2024/03/06 08:14:04;;;;;;;32.30;20.30;;;;;;;7.32;80.72;100861.89;129796;1259;114747;-68
2024/03/06 08:17:05;;;;;;;29.60;17.80;;;;;;;7.46;80.39;100866.67;129494;1259;114817;-70
2024/03/06 08:20:07;;;;;;;25.80;16.20;;;;;;;7.53;79.21;100865.23;129732;1265;114770;-68
2024/03/06 08:23:10;;;;;;;22.50;15.40;;;;;;;7.68;79.64;100862.30;129628;1265;114662;-72
2024/03/06 08:26:11;;;;;;;23.10;15.70;;;;;;;7.91;79.58;100857.77;129588;1260;114982;-68
2024/03/06 08:29:12;;;;;;;22.40;14.70;;;;;;;8.00;78.32;100858.92;129637;1265;114836;-69
2024/03/06 08:32:13;;;;;;;23.50;16.10;;;;;;;8.11;78.54;100863.56;129731;1265;116412;-69
2024/03/06 08:35:15;;;;;;;22.60;14.90;;;;;;;8.27;78.13;100861.65;129594;1260;114790;-73
2024/03/06 08:38:17;;;;;;;23.30;14.20;;;;;;;8.27;77.48;100856.88;129584;1265;127885;-70
2024/03/06 08:41:17;;;;;;;25.00;16.00;;;;;;;8.19;75.54;100859.77;129525;1259;114837;-71
2024/03/06 08:44:18;;;;;;;21.20;14.20;;;;;;;8.06;75.71;100853.41;129711;1259;115501;-70
2024/03/06 08:47:19;;;;;;;19.90;12.90;;;;;;;8.04;76.56;100854.50;129600;1265;114845;-78
2024/03/06 08:50:20;;;;;;;23.00;16.00;;;;;;;8.11;77.07;100857.52;129587;1260;114827;-69
2024/03/06 08:53:21;;;;;;;22.40;14.90;;;;;;;8.14;75.66;100861.15;129582;1265;114834;-72
2024/03/06 08:56:21;;;;;;;21.30;14.80;;;;;;;8.13;76.00;100859.59;129705;1264;114755;-70
2024/03/06 08:59:22;;;;;;;18.80;11.40;;;;;;;8.28;76.70;100859.48;129750;1265;114892;-68
2024/03/06 09:02:23;;;;;;;22.60;15.20;;;;;;;8.42;74.70;100863.71;129560;1260;114825;-77
2024/03/06 09:05:24;;;;;;;15.30;9.00;;;;;;;8.43;74.83;100865.80;129720;1264;114836;-69
2024/03/06 09:08:25;;;;;;;17.00;10.90;;;;;;;8.40;73.52;100871.94;129565;1264;115449;-70
2024/03/06 09:11:25;;;;;;;17.10;11.50;;;;;;;8.36;73.60;100868.65;129684;1259;116057;-72
2024/03/06 09:14:26;;;;;;;14.80;10.10;;;;;;;8.39;72.71;100868.40;129621;1265;115336;-68
2024/03/06 09:17:27;;;;;;;19.70;10.80;;;;;;;8.42;72.53;100864.75;129651;1265;115432;-70
2024/03/06 09:20:28;;;;;;;15.70;10.70;;;;;;;8.42;72.76;100866.35;129901;1265;115310;-73
2024/03/06 09:23:30;;;;;;;14.90;9.90;;;;;;;8.38;72.32;100864.17;129726;1259;115447;-68
2024/03/06 09:26:30;;;;;;;15.50;10.10;;;;;;;8.38;71.14;100860.61;129747;1264;115145;-70
2024/03/06 09:29:31;;;;;;;18.40;10.70;;;;;;;8.44;72.12;100861.14;129719;1263;114825;-68
2024/03/06 09:32:32;;;;;;;17.60;11.60;;;;;;;8.65;72.90;100861.55;129497;1265;115156;-75
2024/03/06 09:35:33;;;;;;;13.90;9.00;;;;;;;8.85;71.95;100865.19;129697;1260;114796;-67
2024/03/06 09:38:33;;;;;;;14.60;11.40;;;;;;;8.88;70.18;100865.80;129595;1264;114810;-66
2024/03/06 09:41:34;;;;;;;13.10;10.10;;;;;;;8.91;70.54;100866.04;129776;1273;114884;-66
2024/03/06 09:44:35;;;;;;;14.90;10.00;;;;;;;8.97;69.64;100868.52;129717;1273;115267;-67
2024/03/06 09:47:35;;;;;;;13.00;8.20;;;;;;;8.92;68.48;100865.83;129764;1264;114822;-66
2024/03/06 09:50:41;;;;;;;11.80;8.20;;;;;;;8.88;68.76;100869.89;129772;1273;114822;-66
2024/03/06 09:53:43;;;;;;;;;;;;;;;8.90;66.78;100876.06;129632;1267;115275;-67
2024/03/06 09:56:44;;;;;;;16.30;10.70;;;;;;;8.79;66.53;100875.89;129795;1262;115168;-66
2024/03/06 09:59:45;;;;;;;15.20;10.60;;;;;;;8.83;66.36;100881.84;129732;1265;114710;-66
2024/03/06 10:03:01;;;;;;;16.80;9.80;;;;;;;8.85;66.46;100886.73;129538;1265;115355;-67
2024/03/06 10:06:02;;;;;;;12.20;8.60;;;;;;;8.90;65.27;100885.34;129656;1270;115007;-66
2024/03/06 10:09:08;;;;;;;14.80;9.30;;;;;;;8.95;65.65;100885.13;129793;1259;114800;-71
2024/03/06 10:12:12;;;;;;;14.50;10.10;;;;;;;9.13;66.09;100886.69;129692;1264;114808;-66
2024/03/06 10:15:13;;;;;;;20.60;14.50;;;;;;;9.35;65.84;100888.23;129781;1273;114915;-67
2024/03/06 10:18:15;;;;;;;20.00;14.80;;;;;;;9.44;65.71;100883.14;129711;1260;116182;-69
2024/03/06 10:21:17;;;;;;;18.00;13.00;;;;;;;9.51;66.28;100881.09;129585;1260;127596;-67
2024/03/06 10:24:25;;;;;;;20.30;12.70;;;;;;;9.64;65.54;100889.91;129736;1263;114828;-65
2024/03/06 10:27:27;;;;;;;18.20;12.10;;;;;;;9.49;63.74;100890.27;129767;1265;114807;-64
2024/03/06 10:30:27;;;;;;;17.70;12.20;;;;;;;9.36;64.85;100900.52;129825;1265;114828;-66
2024/03/06 10:33:29;;;;;;;22.90;16.00;;;;;;;9.31;64.65;100897.51;129725;1265;115141;-65
2024/03/06 10:36:33;;;;;;;17.20;12.20;;;;;;;9.27;65.08;100899.55;129627;1282;114791;-66
2024/03/06 10:39:38;;;;;;;17.80;12.00;;;;;;;9.21;64.55;100904.96;129650;1265;129771;-67
2024/03/06 10:42:42;;;;;;;18.80;12.90;;;;;;;9.02;63.63;100910.04;129680;1264;114823;-66
2024/03/06 10:45:51;;;;;;;24.40;14.80;;;;;;;8.87;64.21;100911.45;129742;1266;114944;-65
2024/03/06 10:48:52;;;;;;;16.90;11.90;;;;;;;8.65;63.68;100910.88;129893;1282;114743;-65
2024/03/06 10:51:55;;;;;;;23.10;14.10;;;;;;;8.40;64.03;100912.49;129761;1278;114817;-66
2024/03/06 10:54:59;;;;;;;11.10;7.90;;;;;;;8.28;64.76;100914.30;129859;1265;114706;-65
2024/03/06 10:58:00;;;;;;;21.10;14.80;;;;;;;8.22;64.99;100915.90;129713;1264;128380;-68
2024/03/06 11:01:01;;;;;;;22.30;15.30;;;;;;;8.23;65.76;100914.98;129768;1281;116013;-65
2024/03/06 11:04:03;;;;;;;24.30;15.60;;;;;;;8.30;66.10;100919.23;129754;1274;114750;-67
2024/03/06 11:07:04;;;;;;;20.80;14.00;;;;;;;8.30;66.22;100913.70;129714;1273;114895;-68
2024/03/06 11:10:06;;;;;;;24.80;17.80;;;;;;;8.38;66.61;100915.59;129727;1265;114756;-66
2024/03/06 11:13:24;;;;;;;29.00;18.40;;;;;;;8.50;66.82;100910.98;129738;1259;114895;-66
2024/03/06 11:16:29;;;;;;;22.30;15.40;;;;;;;8.65;66.73;100910.52;129652;1265;114784;-65
2024/03/06 11:19:31;;;;;;;25.30;17.80;;;;;;;8.75;66.85;100909.52;129696;1267;130102;-68
2024/03/06 11:22:57;;;;;;;19.40;13.60;;;;;;;8.86;66.66;100909.16;129631;1262;114751;-67
2024/03/06 11:26:09;;;;;;;19.50;14.50;;;;;;;8.92;66.22;100907.17;129626;1265;115530;-68
2024/03/06 11:29:11;;;;;;;22.10;13.50;;;;;;;8.85;65.47;100907.58;129600;1259;114759;-67
2024/03/06 11:32:12;;;;;;;22.10;13.70;;;;;;;8.84;65.53;100904.23;129750;1273;114893;-67
2024/03/06 11:35:12;;;;;;;21.20;15.00;;;;;;;8.89;66.00;100905.31;129661;1273;114762;-66
2024/03/06 11:38:16;;;;;;;19.80;13.80;;;;;;;8.95;65.61;100900.11;129633;1265;114818;-63
2024/03/06 11:41:17;;;;;;;21.20;14.10;;;;;;;8.94;65.01;100896.20;129722;1274;130078;-67
2024/03/06 11:44:23;;;;;;;16.00;11.90;;;;;;;8.93;64.64;100896.08;129647;1264;114850;-66
2024/03/06 11:47:24;;;;;;;20.80;13.60;;;;;;;8.92;64.48;100892.56;129701;1264;114738;-66
2024/03/06 11:50:31;;;;;;;19.90;13.20;;;;;;;8.94;64.52;100887.48;129643;1274;114747;-64
2024/03/06 11:53:36;;;;;;;20.40;12.80;;;;;;;8.99;64.84;100886.25;129725;1263;114820;-64
2024/03/06 11:56:39;;;;;;;18.60;13.80;;;;;;;9.09;64.17;100880.94;129638;1266;114810;-65
2024/03/06 11:59:40;;;;;;;20.80;14.30;;;;;;;9.18;64.38;100879.40;129619;1273;114860;-65
2024/03/06 12:02:41;;;;;;;23.20;14.70;;;;;;;9.29;65.02;100878.82;129725;1267;114829;-68
2024/03/06 12:05:42;;;;;;;17.30;11.70;;;;;;;9.40;64.36;100876.68;129855;1273;260962;-66
2024/03/06 12:08:43;;;;;;;16.70;10.80;;;;;;;9.47;63.84;100873.39;130085;1264;114892;-69
2024/03/06 12:11:44;;;;;;;19.40;11.50;;;;;;;9.48;62.68;100870.13;129686;1276;114754;-66
2024/03/06 12:14:57;;;;;;;18.70;12.60;;;;;;;9.40;62.24;100876.85;129804;1282;114980;-65
2024/03/06 12:17:58;;;;;;;18.80;13.10;;;;;;;9.30;62.51;100880.23;129748;1265;114813;-65
2024/03/06 12:21:02;;;;;;;15.70;10.00;;;;;;;9.24;62.13;100879.70;129942;1265;114784;-64
2024/03/06 12:24:08;;;;;;;19.10;12.00;;;;;;;9.07;62.08;100881.17;129888;1265;114822;-68
2024/03/06 12:27:09;;;;;;;18.60;11.50;;;;;;;8.93;62.04;100878.25;129718;1271;114714;-67
2024/03/06 12:30:12;;;;;;;16.70;11.60;;;;;;;8.79;61.76;100875.88;129633;1267;116425;-64
2024/03/06 12:33:16;;;;;;;15.90;11.00;;;;;;;8.67;62.04;100878.96;129831;1273;127549;-63
2024/03/06 12:36:25;;;;;;;15.70;11.00;;;;;;;8.54;62.06;100879.20;129203;1265;115140;-67
2024/03/06 12:39:26;;;;;;;16.90;11.50;;;;;;;8.48;62.64;100878.82;129653;1263;114827;-67
2024/03/06 12:42:28;;;;;;;16.20;11.70;;;;;;;8.49;62.77;100876.84;129787;1267;114748;-67
2024/03/06 12:45:29;;;;;;;15.00;9.80;;;;;;;8.45;62.84;100879.25;129637;1261;114718;-67
2024/03/06 12:48:30;;;;;;;22.10;13.60;;;;;;;8.39;62.71;100880.34;129653;1267;114808;-67
2024/03/06 12:51:32;;;;;;;20.40;13.20;;;;;;;8.28;62.78;100882.27;129656;1269;114914;-66
2024/03/06 12:54:33;;;;;;;21.30;13.60;;;;;;;8.17;62.92;100880.80;129627;1265;115145;-66
2024/03/06 12:57:34;;;;;;;22.50;15.00;;;;;;;8.06;63.51;100882.02;129706;1273;114848;-67
2024/03/06 13:00:35;;;;;;;23.40;12.40;;;;;;;7.91;63.37;100882.46;129683;1272;114845;-66
2024/03/06 13:03:37;;;;;;;23.00;17.00;;;;;;;7.83;63.94;100886.61;129727;1273;114845;-67
2024/03/06 13:06:40;;;;;;;26.60;16.90;;;;;;;7.78;63.94;100886.77;129768;1267;114804;-66
2024/03/06 13:09:41;;;;;;;27.00;16.00;;;;;;;7.75;64.61;100885.23;129679;1266;114856;-67
2024/03/06 13:12:42;;;;;;;25.30;16.80;;;;;;;7.73;64.85;100886.73;129794;1272;115200;-66
2024/03/06 13:15:44;;;;;;;26.70;17.90;;;;;;;7.68;65.00;100887.60;129712;1266;114792;-67
2024/03/06 13:18:45;;;;;;;25.70;18.00;;;;;;;7.59;65.07;100886.22;129589;1272;114782;-67
2024/03/06 13:21:46;;;;;;;28.70;19.40;;;;;;;7.57;65.89;100884.14;129727;1266;114741;-67
2024/03/06 13:24:46;;;;;;;26.60;17.70;;;;;;;7.63;66.22;100884.16;129580;1273;114815;-66
2024/03/06 13:27:47;;;;;;;29.00;16.70;;;;;;;7.66;66.20;100885.49;129677;1264;115263;-67
2024/03/06 13:30:50;;;;;;;28.60;17.50;;;;;;;7.66;66.10;100879.63;129674;1267;114875;-67
2024/03/06 13:33:51;;;;;;;26.00;19.00;;;;;;;7.64;66.34;100881.44;129713;1264;114820;-67
2024/03/06 13:36:53;;;;;;;30.70;19.60;;;;;;;7.66;66.48;100885.15;129607;1276;114767;-67
2024/03/06 13:39:58;;;;;;;26.30;18.70;;;;;;;7.64;66.90;100889.13;129574;1273;114749;-67